ADDS METAR Data INFO
IDs: Format: Raw Decoded Include TAF

Data at: 0753 UTC 23 Apr 2018

KCRS 230653Z AUTO 29005KT 10SM CLR 11/08 A3004 RMK AO2 SLP171 T01110078 $
KCRS 230553Z AUTO 30006KT 10SM CLR 11/08 A3004 RMK AO2 SLP171 T01060078 10183 20106 402060106 58005 $
KCRS 230453Z AUTO 26005KT 10SM CLR 12/08 A3005 RMK AO2 SLP174 T01170083 $
KCRS 230353Z AUTO 25005KT 10SM CLR 12/08 A3006 RMK AO2 SLP179 T01220083 $
KCRS 230253Z AUTO 28005KT 10SM CLR 13/08 A3006 RMK AO2 SLP178 T01280083 53010 $
KCRS 230153Z AUTO 32003KT 10SM CLR 14/08 A3004 RMK AO2 SLP172 T01440083 $
KCRS 230053Z AUTO 30005KT 10SM CLR 15/09 A3003 RMK AO2 SLP167 T01500089 $
KCRS 222353Z AUTO 31012KT 10SM CLR 18/08 A3003 RMK AO2 SLP166 T01830078 10206 20178 55002 $
KCRS 222253Z AUTO 33015KT 10SM CLR 20/08 A3002 RMK AO2 SLP164 T02000078 $
KCRS 222153Z AUTO 30014KT 10SM CLR 20/08 A3002 RMK AO2 SLP164 T02000083 $
KCRS 222053Z AUTO 32014KT 10SM FEW046 20/09 A3003 RMK AO2 SLP168 T02000089 58019 $
KCRS 221953Z AUTO 33015KT 10SM FEW044 19/08 A3006 RMK AO2 SLP176 T01890083 $
KCRS 221853Z AUTO 31015KT 10SM CLR 19/09 A3007 RMK AO2 SLP181 T01890089 $
KCRS 221753Z AUTO 30017G22KT 10SM CLR 18/08 A3009 RMK AO2 SLP188 T01780083 10178 20111 58001 $
KCRS 221653Z AUTO 31014KT 10SM CLR 17/09 A3010 RMK AO2 SLP190 T01720089 $
KCRS 221553Z AUTO 31017G21KT 10SM CLR 16/08 A3010 RMK AO2 SLP190 T01560083 $
KCRS 221522Z AUTO 31013KT 10SM SCT024 14/09 A3010 RMK AO2 T01440089 $
KCRS 221453Z AUTO 33013KT 10SM BKN022 BKN026 14/09 A3009 RMK AO2 SLP189 T01390089 53006 $
KCRS 221353Z AUTO 33012KT 10SM OVC026 13/09 A3008 RMK AO2 SLP185 T01280094 $
KCRS 221324Z AUTO 33011KT 10SM BKN026 13/09 A3008 RMK AO2 T01280089 $
KCRS 221253Z AUTO 34009KT 10SM FEW022 12/09 A3008 RMK AO2 SLP182 T01170089 $
KCRS 221251Z AUTO 34007KT 10SM SCT022 12/09 A3008 RMK AO2 $
KCRS 221153Z AUTO 32005KT 10SM BKN022 11/09 A3007 RMK AO2 SLP182 7//// T01110089 10133 20106 53012 $
KCRS 221103Z AUTO 33009KT 10SM BKN020 11/09 A3006 RMK AO2 T01110089 $
KCRS 221053Z AUTO 33009KT 10SM SCT020 11/09 A3005 RMK AO2 SLP175 T01110089 $
KCRS 221044Z AUTO 33009KT 10SM BKN021 11/09 A3006 RMK AO2 T01110089 $
KCRS 221032Z AUTO 34011KT 10SM SCT023 11/09 A3005 RMK AO2 T01110089 $
KCRS 220953Z AUTO 33010G18KT 10SM OVC017 12/09 A3005 RMK AO2 SLP173 T01170089 $
KCRS 220916Z AUTO 33012KT 10SM OVC015 12/09 A3005 RMK AO2 T01170094 $
KCRS 220853Z AUTO 33013G19KT 10SM OVC014 12/10 A3004 RMK AO2 SLP170 T01220100 53001 $
KCRS 220753Z AUTO 34008KT 10SM OVC012 13/11 A3003 RMK AO2 SLP166 T01280111 $
KCRS 220653Z AUTO 35009KT 10SM BKN012 OVC024 13/12 A3003 RMK AO2 SLP168 T01280117 $
KCRS 220602Z AUTO 33014G21KT 10SM SCT006 BKN012 OVC019 13/12 A3003 RMK AO2 T01280117 $
KCRS 220553Z AUTO 34013G22KT 9SM BKN006 OVC012 13/12 A3004 RMK AO2 PK WND 32026/0533 CIG 004V010 SLP169 60000 T01330117 10189 20133 402000117 51020 $
KCRS 220550Z AUTO 33013KT 8SM BKN006 OVC012 13/12 A3004 RMK AO2 PK WND 32026/0533 CIG 004V010 $
KCRS 220528Z AUTO 32011G21KT 5SM BR OVC003 14/13 A3002 RMK AO2 CIG 002V007 T01390133 $
KCRS 220515Z AUTO 32017G24KT 2SM BR OVC004 14/13 A3002 RMK AO2 CIG 002V008 T01440133 $
KCRS 220453Z AUTO 32017G23KT 4SM BR OVC004 16/15 A3000 RMK AO2 SLP158 T01610150 $
KCRS 220431Z AUTO 34011KT 4SM BR OVC004 17/16 A3000 RMK AO2 CIG 003V007 T01670156 $
KCRS 220411Z AUTO 34010G18KT 9SM BKN006 BKN028 OVC035 17/16 A2999 RMK AO2 CIG 004V011 T01670156 $
KCRS 220357Z AUTO 32012KT 9SM FEW008 BKN028 BKN035 17/16 A2998 RMK AO2 T01670161 $
KCRS 220353Z AUTO 32010KT 8SM SCT028 BKN035 BKN100 17/16 A2998 RMK AO2 SLP149 T01670161 $
KCRS 220329Z AUTO 36004KT 6SM BR SCT011 SCT055 OVC100 17/17 A2997 RMK AO2 LTG DSNT SE T01720167 $
KCRS 220313Z AUTO 02004KT 6SM BR SCT003 OVC012 17/17 A2997 RMK AO2 LTG DSNT SE AND S T01720167 $
KCRS 220253Z AUTO 35008KT 4SM BR BKN003 OVC008 18/17 A2996 RMK AO2 LTG DSNT NE AND S RAB0159E46 TSB05E25 PRESRR SLP142 P0000 60000 T01780172 51020 $
KCRS 220248Z AUTO 36008KT 4SM BR BKN003 BKN008 OVC031 18/17 A2995 RMK AO2 LTG DSNT NE AND S RAB0159E46 TSB05E25 P0000 $
KCRS 220239Z AUTO 04007KT 3SM -RA BR SCT003 BKN007 OVC016 18/17 A2994 RMK AO2 LTG DSNT N AND NE RAB0159 TSB05E25 P0000 T01780172 $
KCRS 220229Z AUTO 05004KT 2SM -RA BR BKN007 BKN018 OVC029 18/17 A2994 RMK AO2 LTG DSNT N AND NE RAB0159 TSB05E25 P0000 T01780172 $
KCRS 220224Z AUTO 05004KT 1SM +TSRA BR BKN007 BKN016 OVC029 18/17 A2994 RMK AO2 LTG DSNT N RAB0159 TSB05 P0000 T01780172 $
KCRS 220217Z AUTO VRB06KT 2 1/2SM -TSRA BR SCT004 OVC009 18/17 A2994 RMK AO2 LTG DSNT N RAB0159 TSB05 P0000 T01780172 $
KCRS 220211Z AUTO 03004KT 5SM -TSRA BR BKN003 OVC009 18/17 A2994 RMK AO2 LTG DSNT N RAB0159 TSB05 CIG 003V007 P0000 T01780172 $
KCRS 220153Z AUTO 01006KT 4SM VCTS BR OVC003 18/17 A2993 RMK AO2 LTG DSNT W-N SLP134 T01830172 $
KCRS 220053Z AUTO 11006KT 3SM BR BKN004 BKN009 OVC013 18/18 A2990 RMK AO2 LTG DSNT NW SLP123 T01830178 $
KCRS 220043Z AUTO 07005KT 3SM BR SCT004 BKN010 OVC015 18/18 A2990 RMK AO2 LTG DSNT NW CIG 008V013 T01830178 $
KCRS 220036Z AUTO 07006KT 4SM BR SCT010 OVC014 18/18 A2990 RMK AO2 LTG DSNT NW T01830178 $
KCRS 212353Z AUTO 06005KT 6SM BR OVC006 19/18 A2991 RMK AO2 SLP125 6//// T01890178 10200 20161 55011 $
KCRS 212320Z AUTO 14007KT 7SM BKN008 OVC020 19/18 A2989 RMK AO2 CIG 006V011 T01890178 $
KCRS 212313Z AUTO 15008KT 7SM SCT008 BKN012 OVC021 19/18 A2990 RMK AO2 T01890178 $
KCRS 212253Z AUTO 14007KT 6SM BR BKN006 19/18 A2990 RMK AO2 RAE2156 CIG 006V010 SLP124 P0000 T01890178 $
KCRS 212215Z AUTO 14006KT 5SM BR BKN005 19/18 A2991 RMK AO2 RAE2156 CIG 004V008 P0000 T01890178 $
KCRS 212207Z AUTO 14004KT 5SM BR SCT005 BKN012 BKN042 18/18 A2992 RMK AO2 RAE2156 P0000 T01830178 $
KCRS 212153Z AUTO 13006KT 4SM -RA BR SCT005 SCT020 BKN041 19/18 A2991 RMK AO2 SLP127 P0000 T01890178 $
KCRS 212149Z AUTO 12008KT 2SM -RA BR SCT005 BKN020 OVC065 18/18 A2992 RMK AO2 P0000 $
KCRS 212140Z AUTO 12008KT 1 3/4SM RA BR BKN005 BKN015 OVC023 18/17 A2992 RMK AO2 P0000 T01780167 $
KCRS 212053Z AUTO 00000KT 4SM -RA BR BKN005 BKN018 OVC035 17/17 A2994 RMK AO2 CIG 003V009 SLP136 P0000 6//// T01720167 58010 $
KCRS 212049Z AUTO 00000KT 3SM -RA BR BKN006 BKN015 OVC035 17/17 A2994 RMK AO2 CIG 003V009 P0000 $
KCRS 212021Z AUTO 00000KT 2 1/2SM -RA BR FEW004 OVC017 17/16 A2995 RMK AO2 P0000 T01720161 $
KCRS 212007Z AUTO 00000KT 3SM -RA BR BKN017 OVC032 17/16 A2995 RMK AO2 P0000 T01720161 $